createdAt,value
2018-02-03T00:00:42.567Z,23.93
2018-02-03T00:03:10.129Z,26.73
2018-02-03T00:05:37.655Z,25.43
2018-02-03T00:08:05.165Z,24.80
2018-02-03T00:10:32.709Z,27.90
2018-02-03T00:13:00.264Z,25.10
2018-02-03T00:15:27.929Z,30.00
2018-02-03T00:17:55.436Z,26.60
2018-02-03T00:20:22.960Z,29.93
2018-02-03T00:22:50.496Z,26.97
2018-02-03T00:25:18.066Z,28.20
2018-02-03T00:27:45.667Z,28.00
2018-02-03T00:30:13.244Z,27.63
2018-02-03T00:32:40.817Z,29.03
2018-02-03T00:35:08.349Z,30.57
2018-02-03T00:37:36.014Z,37.73
2018-02-03T00:40:03.566Z,34.60
2018-02-03T00:42:31.154Z,28.73
2018-02-03T00:44:58.706Z,35.17
2018-02-03T00:47:26.235Z,30.47
2018-02-03T00:49:53.746Z,28.43
2018-02-03T00:52:21.303Z,30.57
2018-02-03T00:54:48.801Z,31.17
2018-02-03T00:57:16.305Z,27.97
2018-02-03T00:59:43.863Z,30.23
2018-02-03T01:02:11.409Z,38.00
2018-02-03T01:04:38.963Z,32.90
2018-02-03T01:07:06.552Z,28.87
2018-02-03T01:09:34.198Z,26.33
2018-02-03T01:12:01.856Z,26.90
2018-02-03T01:14:29.413Z,32.30
2018-02-03T01:16:57.027Z,28.30
2018-02-03T01:19:24.553Z,32.33
2018-02-03T01:21:52.092Z,27.03
2018-02-03T01:24:19.711Z,26.87
2018-02-03T01:26:47.255Z,29.60
2018-02-03T01:29:14.802Z,29.17
2018-02-03T01:31:42.356Z,27.50
2018-02-03T01:34:09.963Z,31.50
2018-02-03T01:36:37.463Z,26.43
2018-02-03T01:39:05.020Z,27.10
2018-02-03T01:41:32.551Z,23.73
2018-02-03T01:44:00.149Z,24.90
2018-02-03T01:46:27.754Z,28.00
2018-02-03T01:48:55.311Z,22.93
2018-02-03T01:51:22.841Z,24.10
2018-02-03T01:53:50.361Z,24.90
2018-02-03T01:56:17.905Z,26.30
2018-02-03T01:58:45.453Z,27.43
2018-02-03T02:01:12.998Z,27.63
2018-02-03T02:03:40.518Z,27.57
2018-02-03T02:06:08.100Z,26.70
2018-02-03T02:08:35.640Z,26.80
2018-02-03T02:11:03.248Z,29.50
2018-02-03T02:13:30.794Z,29.33
2018-02-03T02:15:58.297Z,28.53
2018-02-03T02:18:25.835Z,30.53
2018-02-03T02:20:53.391Z,25.50
2018-02-03T02:23:20.957Z,33.63
2018-02-03T02:25:48.504Z,27.33
2018-02-03T02:28:16.075Z,29.87
2018-02-03T02:30:43.603Z,25.37
2018-02-03T02:33:11.113Z,29.50
2018-02-03T02:35:38.642Z,27.63
2018-02-03T02:38:06.151Z,26.97
2018-02-03T02:40:33.713Z,30.37
2018-02-03T02:43:01.248Z,33.90
2018-02-03T02:45:28.771Z,27.53
2018-02-03T02:47:56.303Z,30.23
2018-02-03T02:50:23.856Z,32.83
2018-02-03T02:52:51.407Z,36.67
2018-02-03T02:55:18.955Z,29.73
2018-02-03T02:57:46.481Z,31.00
2018-02-03T03:00:14.007Z,38.57
2018-02-03T03:02:41.567Z,34.77
2018-02-03T03:05:09.094Z,36.67
2018-02-03T03:07:36.781Z,30.00
2018-02-03T03:10:04.359Z,32.77
2018-02-03T03:12:31.907Z,32.03
2018-02-03T03:14:59.427Z,32.80
2018-02-03T03:17:27.007Z,27.80
2018-02-03T03:19:54.551Z,29.80
2018-02-03T03:22:22.099Z,29.00
2018-02-03T03:24:49.642Z,31.67
2018-02-03T03:27:17.228Z,32.57
2018-02-03T03:29:44.771Z,40.13
2018-02-03T03:32:12.321Z,32.20
2018-02-03T03:34:39.892Z,33.50
2018-02-03T03:37:07.413Z,31.10
2018-02-03T03:39:35.134Z,31.87
2018-02-03T03:42:02.667Z,30.13
2018-02-03T03:44:30.166Z,34.97
2018-02-03T03:46:57.712Z,33.37
2018-02-03T03:49:25.261Z,33.43
2018-02-03T03:51:52.818Z,32.10
2018-02-03T03:54:20.328Z,35.43
2018-02-03T03:56:47.870Z,34.03
2018-02-03T03:59:15.448Z,30.47
2018-02-03T04:01:43.087Z,31.77
2018-02-03T04:04:10.631Z,34.73
2018-02-03T04:06:38.167Z,35.63
2018-02-03T04:09:05.727Z,36.17
2018-02-03T04:11:33.257Z,34.73
2018-02-03T04:14:00.815Z,34.23
2018-02-03T04:16:28.332Z,31.67
2018-02-03T04:18:55.896Z,31.47
2018-02-03T04:21:23.436Z,27.57
2018-02-03T04:23:50.981Z,36.17
2018-02-03T04:26:18.512Z,27.80
2018-02-03T04:28:46.012Z,30.17
2018-02-03T04:31:13.558Z,33.00
2018-02-03T04:33:41.085Z,29.43
2018-02-03T04:36:07.925Z,26.00
2018-02-03T04:38:35.454Z,28.83
2018-02-03T04:41:02.987Z,27.67
2018-02-03T04:43:30.509Z,30.17
2018-02-03T04:45:58.019Z,28.50
2018-02-03T04:48:25.541Z,29.07
2018-02-03T04:50:53.059Z,28.63
2018-02-03T04:53:20.606Z,25.83
2018-02-03T04:55:49.044Z,28.00
2018-02-03T04:58:16.592Z,25.67
2018-02-03T05:00:44.196Z,28.67
2018-02-03T05:03:11.767Z,28.57
2018-02-03T05:05:39.317Z,28.40
2018-02-03T05:08:06.861Z,30.00
2018-02-03T05:10:34.380Z,37.57
2018-02-03T05:13:01.909Z,23.20
2018-02-03T05:15:29.483Z,26.27
2018-02-03T05:17:57.042Z,27.90
2018-02-03T05:20:24.673Z,24.17
2018-02-03T05:22:52.277Z,30.43
2018-02-03T05:25:19.854Z,30.00
2018-02-03T05:27:47.381Z,28.20
2018-02-03T05:30:14.919Z,27.47
2018-02-03T05:32:42.485Z,28.30
2018-02-03T05:35:10.092Z,26.80
2018-02-03T05:37:39.008Z,28.97
2018-02-03T05:40:06.893Z,27.03
2018-02-03T05:42:34.459Z,24.07
2018-02-03T05:45:04.169Z,28.17
2018-02-03T05:47:31.912Z,26.07
2018-02-03T05:49:59.438Z,25.60
2018-02-03T05:52:28.257Z,28.33
2018-02-03T05:54:55.866Z,24.53
2018-02-03T05:57:23.669Z,28.17
2018-02-03T05:59:51.221Z,24.93
2018-02-03T06:02:18.923Z,24.83
2018-02-03T06:04:46.765Z,24.27
2018-02-03T06:07:14.348Z,26.70
2018-02-03T06:09:41.947Z,24.20
2018-02-03T06:12:09.815Z,27.87
2018-02-03T06:14:37.507Z,23.90
2018-02-03T06:17:05.175Z,22.37
2018-02-03T06:19:32.733Z,22.87
2018-02-03T06:22:00.275Z,26.77
2018-02-03T06:24:27.875Z,27.07
2018-02-03T06:26:55.512Z,22.40
2018-02-03T06:29:23.116Z,25.50
2018-02-03T06:31:50.859Z,20.60
2018-02-03T06:34:18.387Z,24.77
2018-02-03T06:36:46.018Z,23.03
2018-02-03T06:39:13.783Z,24.13
2018-02-03T06:41:41.918Z,23.80
2018-02-03T06:44:09.516Z,26.43
2018-02-03T06:46:38.649Z,28.77
2018-02-03T06:49:06.299Z,23.80
2018-02-03T06:51:34.921Z,24.90
2018-02-03T06:54:02.724Z,28.90
2018-02-03T06:56:32.564Z,24.47
2018-02-03T06:59:00.164Z,23.80
2018-02-03T07:01:30.144Z,20.63
2018-02-03T07:03:57.712Z,24.17
2018-02-03T07:06:25.273Z,27.83
2018-02-03T07:08:52.835Z,26.70
2018-02-03T07:11:20.456Z,25.10
2018-02-03T07:13:48.075Z,23.27
2018-02-03T07:16:16.836Z,26.10
2018-02-03T07:18:44.460Z,23.03
2018-02-03T07:21:12.154Z,25.50
2018-02-03T07:23:39.842Z,26.83
2018-02-03T07:26:08.160Z,27.47
2018-02-03T07:28:35.774Z,25.47
2018-02-03T07:31:03.316Z,21.80
2018-02-03T07:33:31.720Z,23.70
2018-02-03T07:35:59.357Z,26.50
2018-02-03T07:38:29.085Z,22.67
2018-02-03T07:40:56.630Z,21.43
2018-02-03T07:43:24.202Z,23.57
2018-02-03T07:45:51.817Z,21.10
2018-02-03T07:48:19.430Z,23.33
2018-02-03T07:50:47.046Z,26.33
2018-02-03T07:53:14.575Z,23.37
2018-02-03T07:55:42.147Z,20.80
2018-02-03T07:58:09.743Z,23.47
2018-02-03T08:00:37.305Z,22.10
2018-02-03T08:03:04.940Z,20.80
2018-02-03T08:05:32.528Z,24.37
2018-02-03T08:08:00.080Z,24.30
2018-02-03T08:10:27.821Z,20.40
2018-02-03T08:12:55.415Z,17.13
2018-02-03T08:15:22.958Z,14.30
2018-02-03T08:17:52.840Z,16.60
2018-02-03T08:20:20.460Z,17.23
2018-02-03T08:22:48.027Z,15.00
2018-02-03T08:25:15.640Z,13.80
2018-02-03T08:27:43.129Z,15.13
2018-02-03T08:30:10.724Z,16.27
2018-02-03T08:32:38.235Z,16.03
2018-02-03T08:35:05.772Z,16.83
2018-02-03T08:37:33.382Z,18.33
2018-02-03T08:40:00.932Z,19.57
2018-02-03T08:42:28.469Z,18.33
2018-02-03T08:44:56.043Z,20.23
2018-02-03T08:47:23.595Z,17.50
2018-02-03T08:49:51.887Z,18.67
2018-02-03T08:52:19.440Z,19.17
2018-02-03T08:54:46.946Z,16.60
2018-02-03T08:57:14.531Z,20.90
2018-02-03T08:59:42.119Z,23.57
2018-02-03T09:02:09.644Z,22.30
2018-02-03T09:04:37.172Z,20.93
2018-02-03T09:07:04.703Z,19.80
2018-02-03T09:09:32.233Z,21.77
2018-02-03T09:12:05.738Z,22.40
2018-02-03T09:14:33.259Z,27.33
2018-02-03T09:17:00.795Z,26.77
2018-02-03T09:19:28.835Z,28.10
2018-02-03T09:21:57.495Z,30.83
2018-02-03T09:24:26.407Z,23.60
2018-02-03T09:26:54.994Z,24.37
2018-02-03T09:29:22.695Z,23.37
2018-02-03T09:31:50.471Z,23.27
2018-02-03T09:34:19.066Z,23.70
2018-02-03T09:36:46.756Z,21.70
2018-02-03T09:39:14.376Z,25.23
2018-02-03T09:41:42.612Z,25.30
2018-02-03T09:44:10.186Z,22.33
2018-02-03T09:46:38.100Z,27.50
2018-02-03T09:49:06.372Z,26.23
2018-02-03T09:51:37.863Z,24.00
2018-02-03T09:54:05.741Z,25.60
2018-02-03T09:56:34.258Z,27.93
2018-02-03T09:59:02.059Z,26.37
2018-02-03T10:01:30.047Z,27.07
2018-02-03T10:03:58.898Z,25.80
2018-02-03T10:06:31.747Z,25.23
2018-02-03T10:08:59.303Z,24.67
2018-02-03T10:11:27.060Z,30.20
2018-02-03T10:13:56.262Z,23.63
2018-02-03T10:16:27.471Z,23.37
2018-02-03T10:18:55.010Z,24.40
2018-02-03T10:21:22.575Z,22.63
2018-02-03T10:23:51.352Z,21.33
2018-02-03T10:26:21.348Z,25.50
2018-02-03T10:28:49.748Z,25.13
2018-02-03T10:31:17.256Z,23.97
2018-02-03T10:33:44.836Z,27.53
2018-02-03T10:36:12.469Z,26.17
2018-02-03T10:38:40.132Z,24.47
2018-02-03T10:41:07.816Z,25.03
2018-02-03T10:43:35.612Z,27.00
2018-02-03T10:46:03.190Z,25.03
2018-02-03T10:48:30.713Z,29.83
2018-02-03T10:50:58.262Z,33.37
2018-02-03T10:53:25.829Z,27.23
2018-02-03T10:55:53.976Z,34.13
2018-02-03T10:58:21.583Z,28.43
2018-02-03T11:00:49.094Z,34.77
2018-02-03T11:03:17.376Z,28.23
2018-02-03T11:05:44.944Z,22.83
2018-02-03T11:08:14.028Z,23.63
2018-02-03T11:10:41.954Z,31.27
2018-02-03T11:13:10.371Z,27.43
2018-02-03T11:15:38.114Z,22.83
2018-02-03T11:18:05.819Z,26.30
2018-02-03T11:20:33.370Z,29.23
2018-02-03T11:23:00.876Z,29.43
2018-02-03T11:25:28.626Z,26.60
2018-02-03T11:27:56.326Z,23.57
2018-02-03T11:30:23.890Z,24.83
2018-02-03T11:32:51.568Z,21.83
2018-02-03T11:35:19.080Z,22.20
2018-02-03T11:37:47.680Z,21.67
2018-02-03T11:40:15.752Z,21.03
2018-02-03T11:42:43.416Z,19.27
2018-02-03T11:45:11.230Z,23.20
2018-02-03T11:47:40.805Z,20.00
2018-02-03T11:50:08.378Z,18.77
2018-02-03T11:52:35.895Z,19.43
2018-02-03T11:55:03.437Z,20.67
2018-02-03T11:57:30.976Z,18.77
2018-02-03T11:59:58.858Z,15.40
2018-02-03T12:02:26.470Z,14.63
2018-02-03T12:04:54.075Z,15.97
2018-02-03T12:07:21.633Z,18.07
2018-02-03T12:09:49.164Z,11.77
2018-02-03T12:12:16.871Z,12.37
2018-02-03T12:14:46.509Z,11.53
2018-02-03T12:17:14.124Z,15.73
2018-02-03T12:19:41.908Z,13.67
2018-02-03T12:22:09.429Z,18.17
2018-02-03T12:24:37.017Z,17.73
2018-02-03T12:27:05.643Z,14.57
2018-02-03T12:29:34.485Z,12.97
2018-02-03T12:32:02.134Z,21.80
2018-02-03T12:34:29.757Z,19.03
2018-02-03T12:36:57.277Z,20.37
2018-02-03T12:39:24.967Z,14.07
2018-02-03T12:41:52.707Z,19.50
2018-02-03T12:44:22.045Z,20.23
2018-02-03T12:46:49.612Z,16.07
2018-02-03T12:49:17.217Z,14.07
2018-02-03T12:51:44.779Z,16.27
2018-02-03T12:54:12.727Z,21.10
2018-02-03T12:56:40.718Z,17.27
2018-02-03T12:59:08.295Z,21.43
2018-02-03T13:01:38.744Z,17.83
2018-02-03T13:04:06.389Z,15.97
2018-02-03T13:06:34.051Z,15.80
2018-02-03T13:09:02.228Z,15.23
2018-02-03T13:11:29.881Z,15.57
2018-02-03T13:13:57.465Z,15.67
2018-02-03T13:16:25.093Z,16.73
2018-02-03T13:18:52.934Z,17.23
2018-02-03T13:21:20.498Z,13.97
2018-02-03T13:23:53.188Z,16.57
2018-02-03T13:26:20.842Z,19.30
2018-02-03T13:28:48.375Z,14.03
2018-02-03T13:31:16.845Z,15.33
2018-02-03T13:33:44.371Z,15.40
2018-02-03T13:36:11.911Z,14.33
2018-02-03T13:38:39.500Z,14.63
2018-02-03T13:41:07.039Z,13.10
2018-02-03T13:43:34.622Z,14.87
2018-02-03T13:46:02.162Z,13.30
2018-02-03T13:51:27.652Z,14.13
2018-02-03T13:53:55.267Z,14.30
2018-02-03T13:56:22.819Z,15.43
2018-02-03T13:58:50.383Z,14.57
2018-02-03T14:01:18.703Z,13.53
2018-02-03T14:03:46.260Z,18.63
2018-02-03T14:06:13.864Z,14.93
2018-02-03T14:08:41.408Z,15.73
2018-02-03T14:11:08.933Z,15.53
2018-02-03T14:13:36.518Z,16.73
2018-02-03T14:16:04.149Z,13.03
2018-02-03T14:18:31.768Z,16.13
2018-02-03T14:20:59.296Z,13.80
2018-02-03T14:23:26.872Z,14.07
2018-02-03T14:26:00.029Z,10.93
2018-02-03T14:28:27.593Z,13.33
2018-02-03T14:30:55.182Z,10.53
2018-02-03T14:33:22.745Z,9.70
2018-02-03T14:35:50.300Z,9.43
2018-02-03T14:38:17.831Z,11.80
2018-02-03T14:40:45.395Z,11.90
2018-02-03T14:43:12.938Z,8.83
2018-02-03T14:45:40.478Z,10.53
2018-02-03T14:48:08.137Z,9.70
2018-02-03T14:50:35.678Z,10.27
2018-02-03T14:53:03.219Z,9.83
2018-02-03T14:55:30.763Z,10.80
2018-02-03T14:57:58.284Z,8.80
2018-02-03T15:00:25.830Z,10.03
2018-02-03T15:02:53.338Z,8.07
2018-02-03T15:05:20.880Z,12.10
2018-02-03T15:07:48.472Z,9.07
2018-02-03T15:10:16.086Z,9.40
2018-02-03T15:12:43.620Z,9.57
2018-02-03T15:15:11.215Z,9.40
2018-02-03T15:17:38.758Z,8.33
2018-02-03T15:20:06.286Z,10.90
2018-02-03T15:22:33.919Z,9.70
2018-02-03T15:25:01.432Z,8.43
2018-02-03T15:27:28.995Z,11.80
2018-02-03T15:29:56.515Z,8.70
2018-02-03T15:32:24.226Z,9.23
2018-02-03T15:34:51.827Z,9.87
2018-02-03T15:37:19.311Z,9.70
2018-02-03T15:39:46.835Z,13.10
2018-02-03T15:42:14.477Z,9.83
2018-02-03T15:44:41.972Z,12.57
2018-02-03T15:47:09.464Z,8.87
2018-02-03T15:49:36.979Z,9.63
2018-02-03T15:52:04.506Z,10.37
2018-02-03T15:54:32.065Z,9.67
2018-02-03T15:57:00.387Z,14.93
2018-02-03T15:59:28.300Z,10.63
2018-02-03T16:01:55.832Z,10.83
2018-02-03T16:04:23.435Z,13.37
2018-02-03T16:06:50.972Z,13.27
2018-02-03T16:09:18.477Z,11.10
2018-02-03T16:11:45.981Z,10.87
2018-02-03T16:14:13.496Z,12.07
2018-02-03T16:16:41.019Z,11.80
2018-02-03T16:19:08.518Z,13.43
2018-02-03T16:21:36.017Z,15.53
2018-02-03T16:24:04.676Z,14.93
2018-02-03T16:26:32.312Z,14.20
2018-02-03T16:29:00.027Z,14.33
2018-02-03T16:31:29.316Z,12.87
2018-02-03T16:33:56.871Z,13.33
2018-02-03T16:36:24.432Z,13.27
2018-02-03T16:38:51.940Z,13.07
2018-02-03T16:41:19.514Z,12.23
2018-02-03T16:43:47.034Z,17.57
2018-02-03T16:46:14.546Z,13.20
2018-02-03T16:48:42.074Z,14.23
2018-02-03T16:51:09.649Z,17.50
2018-02-03T16:53:37.198Z,11.67
2018-02-03T16:56:04.767Z,17.20
2018-02-03T16:58:32.273Z,12.93
2018-02-03T17:00:59.774Z,18.63
2018-02-03T17:03:27.306Z,14.87
2018-02-03T17:05:54.821Z,17.67
2018-02-03T17:08:22.328Z,13.67
2018-02-03T17:10:49.859Z,12.40
2018-02-03T17:13:17.546Z,13.23
2018-02-03T17:15:45.175Z,15.63
2018-02-03T17:18:13.586Z,15.57
2018-02-03T17:20:41.118Z,16.37
2018-02-03T17:23:08.655Z,14.80
2018-02-03T17:25:36.211Z,16.13
2018-02-03T17:28:03.803Z,17.97
2018-02-03T17:30:31.326Z,15.53
2018-02-03T17:32:58.841Z,14.90
2018-02-03T17:35:26.377Z,16.00
2018-02-03T17:37:59.476Z,17.73
2018-02-03T17:40:27.001Z,20.07
2018-02-03T17:42:54.537Z,20.37
2018-02-03T17:45:27.661Z,15.03
2018-02-03T17:47:55.181Z,16.17
2018-02-03T17:50:22.716Z,16.50
2018-02-03T17:52:50.259Z,20.47
2018-02-03T17:55:23.404Z,18.30
2018-02-03T17:57:50.905Z,19.83
2018-02-03T18:00:18.435Z,19.30
2018-02-03T18:02:45.976Z,18.53
2018-02-03T18:05:13.527Z,18.97
2018-02-03T18:07:41.062Z,18.80
2018-02-03T18:10:08.607Z,17.83
2018-02-03T18:12:36.134Z,21.07
2018-02-03T18:15:03.656Z,20.43
2018-02-03T18:17:31.220Z,21.60
2018-02-03T18:19:59.187Z,15.57
2018-02-03T18:22:26.818Z,17.33
2018-02-03T18:24:54.376Z,17.10
2018-02-03T18:27:21.960Z,17.93
2018-02-03T18:29:50.464Z,19.17
2018-02-03T18:32:18.015Z,17.70
2018-02-03T18:34:45.534Z,18.27
2018-02-03T18:37:13.169Z,19.77
2018-02-03T18:39:40.870Z,18.07
2018-02-03T18:42:08.400Z,17.33
2018-02-03T18:44:37.119Z,15.50
2018-02-03T18:47:04.880Z,16.20
2018-02-03T18:49:32.464Z,19.20
2018-02-03T18:52:00.011Z,18.43
2018-02-03T18:54:27.560Z,19.33
2018-02-03T18:56:55.095Z,16.57
2018-02-03T18:59:23.620Z,16.50
2018-02-03T19:01:51.927Z,20.30
2018-02-03T19:04:19.473Z,20.40
2018-02-03T19:06:47.068Z,18.83
2018-02-03T19:09:14.601Z,18.50
2018-02-03T19:11:42.143Z,18.70
2018-02-03T19:14:09.696Z,22.20
2018-02-03T19:16:37.230Z,19.30
2018-02-03T19:19:04.762Z,21.13
2018-02-03T19:21:32.297Z,18.27
2018-02-03T19:23:59.860Z,20.77
2018-02-03T19:26:27.412Z,21.77
2018-02-03T19:28:54.989Z,18.33
2018-02-03T19:31:22.533Z,19.93
2018-02-03T19:33:50.086Z,21.07
2018-02-03T19:36:17.661Z,24.37
2018-02-03T19:38:45.253Z,24.97
2018-02-03T19:41:12.842Z,21.63
2018-02-03T19:43:40.412Z,21.13
2018-02-03T19:46:07.948Z,21.03
2018-02-03T19:48:35.491Z,24.43
2018-02-03T19:51:03.000Z,24.60
2018-02-03T19:53:33.358Z,24.57
2018-02-03T19:56:00.889Z,29.93
2018-02-03T19:58:28.418Z,26.37
2018-02-03T20:00:55.932Z,22.10
2018-02-03T20:03:23.514Z,26.13
2018-02-03T20:05:51.107Z,21.43
2018-02-03T20:08:18.638Z,23.37
2018-02-03T20:10:47.043Z,26.83
2018-02-03T20:13:14.603Z,24.87
2018-02-03T20:15:42.122Z,25.17
2018-02-03T20:18:09.687Z,25.23
2018-02-03T20:20:37.309Z,29.23
2018-02-03T20:23:04.819Z,27.20
2018-02-03T20:25:32.359Z,25.77
2018-02-03T20:27:59.873Z,27.00
2018-02-03T20:30:27.378Z,27.50
2018-02-03T20:32:54.938Z,26.67
2018-02-03T20:35:22.481Z,28.50
2018-02-03T20:37:50.004Z,31.27
2018-02-03T20:40:17.519Z,29.27
2018-02-03T20:42:45.026Z,28.63
2018-02-03T20:45:12.563Z,29.37
2018-02-03T20:47:40.104Z,27.40
2018-02-03T20:50:07.657Z,33.03
2018-02-03T20:52:35.276Z,29.53
2018-02-03T20:55:02.804Z,26.97
2018-02-03T20:57:30.334Z,30.83
2018-02-03T20:59:57.864Z,31.70
2018-02-03T21:02:25.452Z,29.93
2018-02-03T21:04:52.976Z,28.90
2018-02-03T21:07:20.491Z,34.30
2018-02-03T21:09:48.040Z,32.77
2018-02-03T21:12:15.719Z,28.60
2018-02-03T21:14:43.262Z,31.50
2018-02-03T21:17:10.808Z,35.80
2018-02-03T21:19:38.335Z,28.43
2018-02-03T21:22:05.877Z,29.43
2018-02-03T21:24:33.433Z,34.87
2018-02-03T21:27:00.928Z,36.07
2018-02-03T21:29:28.448Z,35.87
2018-02-03T21:31:55.975Z,46.50
2018-02-03T21:34:23.576Z,33.33
2018-02-03T21:36:51.098Z,31.13
2018-02-03T21:39:18.639Z,34.20
2018-02-03T21:41:46.159Z,34.20
2018-02-03T21:44:13.665Z,33.17
2018-02-03T21:46:41.231Z,36.40
2018-02-03T21:49:08.744Z,38.57
2018-02-03T21:51:36.352Z,34.87
2018-02-03T21:54:03.916Z,34.43
2018-02-03T21:56:31.449Z,38.07
2018-02-03T21:58:58.994Z,37.23
2018-02-03T22:01:26.592Z,35.67
2018-02-03T22:03:54.165Z,32.20
2018-02-03T22:06:21.712Z,32.77
2018-02-03T22:08:49.275Z,29.13
2018-02-03T22:11:16.789Z,37.20
2018-02-03T22:13:44.332Z,35.27
2018-02-03T22:16:11.843Z,33.93
2018-02-03T22:18:39.436Z,32.00
2018-02-03T22:21:07.039Z,28.70
2018-02-03T22:23:34.596Z,31.87
2018-02-03T22:26:02.154Z,33.17
2018-02-03T22:28:29.681Z,32.17
2018-02-03T22:30:57.306Z,29.43
2018-02-03T22:33:24.834Z,33.23
2018-02-03T22:35:52.329Z,33.97
2018-02-03T22:38:19.868Z,33.37
2018-02-03T22:40:47.463Z,31.80
2018-02-03T22:43:15.063Z,28.30
2018-02-03T22:45:42.585Z,26.73
2018-02-03T22:48:10.168Z,28.37
2018-02-03T22:50:37.832Z,22.17
2018-02-03T22:53:05.432Z,30.07
2018-02-03T22:55:32.971Z,25.17
2018-02-03T22:58:00.505Z,20.90
2018-02-03T23:00:28.042Z,21.20
2018-02-03T23:02:59.441Z,24.97
2018-02-03T23:05:27.019Z,18.73
2018-02-03T23:07:54.539Z,20.67
2018-02-03T23:10:22.076Z,22.67
2018-02-03T23:12:49.691Z,19.70
2018-02-03T23:15:17.299Z,17.10
2018-02-03T23:17:44.846Z,15.57
2018-02-03T23:20:12.512Z,12.70
2018-02-03T23:22:40.035Z,15.07
2018-02-03T23:25:07.573Z,14.67
2018-02-03T23:27:35.123Z,13.97
2018-02-03T23:30:02.653Z,13.80
2018-02-03T23:32:30.246Z,13.27
2018-02-03T23:34:57.773Z,17.67
2018-02-03T23:37:25.406Z,12.57
2018-02-03T23:39:52.939Z,17.90
2018-02-03T23:42:20.532Z,16.10
2018-02-03T23:44:48.045Z,15.00
2018-02-03T23:47:15.595Z,23.40
2018-02-03T23:49:43.134Z,14.90
2018-02-03T23:52:10.733Z,15.23
2018-02-03T23:54:38.357Z,15.40
2018-02-03T23:57:05.886Z,18.07
2018-02-03T23:59:33.413Z,17.73
